createdAt,value
2023-07-20T00:03:18.366Z,13.55
2023-07-20T00:05:47.369Z,13.51
2023-07-20T00:08:15.848Z,13.49
2023-07-20T00:10:45.064Z,13.49
2023-07-20T00:13:13.525Z,13.48
2023-07-20T00:15:41.501Z,13.48
2023-07-20T00:18:09.534Z,13.47
2023-07-20T00:20:37.881Z,13.47
2023-07-20T00:23:06.396Z,13.45
2023-07-20T00:25:34.663Z,13.44
2023-07-20T00:28:02.888Z,13.42
2023-07-20T00:30:30.991Z,13.38
2023-07-20T00:32:59.163Z,13.36
2023-07-20T00:35:27.181Z,13.32
2023-07-20T00:37:55.551Z,13.31
2023-07-20T00:40:23.717Z,13.31
2023-07-20T00:42:51.864Z,13.33
2023-07-20T00:45:27.215Z,13.34
2023-07-20T00:47:55.294Z,13.37
2023-07-20T00:50:24.308Z,13.39
2023-07-20T00:52:52.472Z,13.40
2023-07-20T00:55:20.923Z,13.39
2023-07-20T00:57:49.210Z,13.41
2023-07-20T01:00:17.609Z,13.41
2023-07-20T01:02:46.584Z,13.34
2023-07-20T01:05:17.665Z,13.32
2023-07-20T01:08:08.593Z,13.33
2023-07-20T01:10:53.122Z,13.37
2023-07-20T01:13:22.896Z,13.39
2023-07-20T01:15:52.519Z,13.40
2023-07-20T01:18:20.878Z,13.41
2023-07-20T01:20:50.049Z,13.38
2023-07-20T01:23:43.001Z,13.36
2023-07-20T01:26:42.937Z,13.32
2023-07-20T01:29:48.553Z,13.25
2023-07-20T01:32:19.178Z,13.17
2023-07-20T01:34:50.182Z,13.10
2023-07-20T01:37:21.187Z,13.04
2023-07-20T01:39:49.807Z,12.98
2023-07-20T01:42:18.764Z,12.92
2023-07-20T01:44:47.060Z,12.88
2023-07-20T01:47:15.018Z,12.82
2023-07-20T01:49:43.079Z,12.77
2023-07-20T01:52:11.252Z,12.71
2023-07-20T01:54:40.396Z,12.63
2023-07-20T01:57:08.544Z,12.56
2023-07-20T01:59:36.640Z,12.51
2023-07-20T02:02:05.070Z,12.50
2023-07-20T02:04:33.261Z,12.52
2023-07-20T02:07:01.562Z,12.56
2023-07-20T02:09:29.686Z,12.59
2023-07-20T02:11:57.649Z,12.62
2023-07-20T02:14:25.789Z,12.66
2023-07-20T02:16:55.276Z,12.70
2023-07-20T02:19:31.338Z,12.74
2023-07-20T02:21:59.605Z,12.78
2023-07-20T02:24:27.636Z,12.78
2023-07-20T02:26:55.787Z,12.75
2023-07-20T02:29:24.416Z,12.73
2023-07-20T02:31:52.429Z,12.78
2023-07-20T02:34:20.785Z,12.83
2023-07-20T02:36:49.399Z,12.90
2023-07-20T02:39:17.432Z,12.96
2023-07-20T02:41:45.749Z,13.01
2023-07-20T02:44:16.092Z,13.04
2023-07-20T02:46:44.089Z,13.07
2023-07-20T02:49:12.098Z,13.10
2023-07-20T02:51:40.230Z,13.11
2023-07-20T02:54:08.211Z,13.15
2023-07-20T02:56:36.350Z,13.18
2023-07-20T02:59:04.306Z,13.19
2023-07-20T03:01:32.415Z,13.21
2023-07-20T03:04:01.104Z,13.24
2023-07-20T03:06:29.242Z,13.26
2023-07-20T03:08:59.083Z,13.30
2023-07-20T03:11:27.144Z,13.35
2023-07-20T03:13:55.188Z,13.39
2023-07-20T03:16:27.045Z,13.45
2023-07-20T03:18:55.915Z,13.50
2023-07-20T03:21:27.382Z,13.53
2023-07-20T03:24:04.852Z,13.56
2023-07-20T03:26:41.813Z,13.58
2023-07-20T03:29:09.815Z,13.60
2023-07-20T03:31:37.930Z,13.62
2023-07-20T03:34:06.391Z,13.64
2023-07-20T03:36:34.396Z,13.63
2023-07-20T03:39:02.468Z,13.63
2023-07-20T03:41:30.569Z,13.65
2023-07-20T03:43:58.854Z,13.70
2023-07-20T03:46:27.427Z,13.75
2023-07-20T03:48:55.750Z,13.80
2023-07-20T03:51:23.894Z,13.84
2023-07-20T03:53:51.780Z,13.89
2023-07-20T03:56:20.944Z,13.92
2023-07-20T03:58:49.252Z,13.94
2023-07-20T04:05:18.663Z,13.89
2023-07-20T04:07:48.206Z,13.90
2023-07-20T04:10:16.853Z,13.89
2023-07-20T04:12:45.987Z,13.89
2023-07-20T04:15:15.058Z,13.91
2023-07-20T04:17:43.133Z,13.95
2023-07-20T04:20:11.534Z,14.00
2023-07-20T04:22:40.502Z,14.04
2023-07-20T04:25:11.267Z,14.05
2023-07-20T04:27:39.428Z,14.04
2023-07-20T04:34:38.451Z,14.07
2023-07-20T04:37:06.873Z,14.07
2023-07-20T04:39:35.126Z,14.07
2023-07-20T04:42:07.885Z,14.05
2023-07-20T04:44:35.764Z,14.07
2023-07-20T04:47:04.368Z,14.11
2023-07-20T04:49:36.257Z,14.19
2023-07-20T04:52:04.643Z,14.27
2023-07-20T04:54:34.025Z,14.37
2023-07-20T04:57:02.295Z,14.46
2023-07-20T04:59:34.272Z,14.55
2023-07-20T05:02:02.466Z,14.59
2023-07-20T05:04:38.363Z,14.63
2023-07-20T05:07:07.861Z,14.68
2023-07-20T05:09:36.040Z,14.72
2023-07-20T05:12:04.400Z,14.76
2023-07-20T05:14:32.629Z,14.80
2023-07-20T05:17:00.852Z,14.83
2023-07-20T05:19:28.993Z,14.85
2023-07-20T05:21:57.088Z,14.89
2023-07-20T05:24:25.338Z,14.97
2023-07-20T05:26:53.267Z,15.04
2023-07-20T05:29:21.429Z,15.08
2023-07-20T05:31:49.464Z,15.10
2023-07-20T05:34:17.853Z,15.11
2023-07-20T05:37:14.758Z,15.12
2023-07-20T05:39:43.147Z,15.12
2023-07-20T05:42:11.741Z,15.13
2023-07-20T05:44:41.558Z,15.16
2023-07-20T05:47:09.736Z,15.11
2023-07-20T05:49:37.792Z,15.10
2023-07-20T05:52:06.219Z,15.08
2023-07-20T05:54:34.339Z,15.07
2023-07-20T05:57:02.389Z,15.03
2023-07-20T05:59:30.754Z,15.01
2023-07-20T06:01:59.318Z,14.99
2023-07-20T06:04:27.776Z,14.95
2023-07-20T06:06:55.940Z,14.98
2023-07-20T06:09:23.898Z,14.97
2023-07-20T06:11:51.940Z,15.00
2023-07-20T06:14:19.845Z,15.02
2023-07-20T06:16:47.965Z,15.03
2023-07-20T06:19:16.262Z,15.06
2023-07-20T06:21:44.468Z,15.09
2023-07-20T06:24:12.432Z,15.10
2023-07-20T06:26:41.320Z,15.15
2023-07-20T06:29:12.641Z,15.24
2023-07-20T06:31:40.826Z,15.32
2023-07-20T06:34:08.908Z,15.39
2023-07-20T06:36:37.644Z,15.44
2023-07-20T06:44:09.214Z,15.62
2023-07-20T06:46:37.476Z,15.70
2023-07-20T06:51:39.767Z,15.91
2023-07-20T06:54:07.738Z,16.05
2023-07-20T06:56:36.047Z,16.19
2023-07-20T06:59:04.707Z,16.31
2023-07-20T07:01:32.720Z,16.40
2023-07-20T07:04:00.740Z,16.47
2023-07-20T07:06:30.447Z,16.51
2023-07-20T07:08:58.993Z,16.52
2023-07-20T07:11:27.243Z,16.48
2023-07-20T07:13:57.511Z,16.39
2023-07-20T07:16:58.444Z,16.36
2023-07-20T07:19:26.695Z,16.34
2023-07-20T07:21:59.850Z,16.31
2023-07-20T07:24:35.264Z,16.26
2023-07-20T07:27:04.762Z,16.22
2023-07-20T07:29:32.941Z,16.20
2023-07-20T07:32:01.143Z,16.18
2023-07-20T07:34:29.640Z,16.15
2023-07-20T07:36:57.667Z,16.12
2023-07-20T07:41:56.605Z,16.08
2023-07-20T07:44:24.882Z,16.11
2023-07-20T07:46:54.740Z,16.13
2023-07-20T07:49:22.789Z,16.15
2023-07-20T07:51:50.948Z,16.17
2023-07-20T07:54:18.940Z,16.20
2023-07-20T07:56:47.027Z,16.22
2023-07-20T07:59:15.035Z,16.22
2023-07-20T08:01:43.192Z,16.22
2023-07-20T08:04:11.247Z,16.26
2023-07-20T08:06:39.490Z,16.31
2023-07-20T08:09:07.717Z,16.39
2023-07-20T08:11:36.095Z,16.47
2023-07-20T08:14:04.153Z,16.51
2023-07-20T08:16:32.356Z,16.56
2023-07-20T08:19:01.177Z,16.60
2023-07-20T08:21:29.302Z,16.64
2023-07-20T08:23:57.403Z,16.66
2023-07-20T08:26:25.809Z,16.64
2023-07-20T08:28:54.890Z,16.65
2023-07-20T08:31:23.112Z,16.69
2023-07-20T08:33:51.043Z,16.71
2023-07-20T08:36:18.990Z,16.74
2023-07-20T08:38:47.037Z,16.77
2023-07-20T08:41:15.257Z,16.77
2023-07-20T08:43:45.103Z,16.77
2023-07-20T08:46:15.005Z,16.84
2023-07-20T08:48:44.301Z,16.91
2023-07-20T08:51:14.214Z,17.00
2023-07-20T08:53:42.377Z,17.08
2023-07-20T08:56:12.278Z,17.17
2023-07-20T08:58:44.527Z,17.27
2023-07-20T09:01:13.019Z,17.38
2023-07-20T09:03:41.722Z,17.47
2023-07-20T09:06:09.857Z,17.58
2023-07-20T09:08:41.831Z,17.68
2023-07-20T09:11:14.066Z,17.86
2023-07-20T09:13:42.104Z,18.02
2023-07-20T09:16:15.425Z,18.18
2023-07-20T09:18:43.641Z,18.27
2023-07-20T09:21:11.667Z,18.36
2023-07-20T09:23:40.934Z,18.52
2023-07-20T09:26:14.519Z,18.85
2023-07-20T09:31:24.085Z,19.93
2023-07-20T09:51:54.418Z,22.51
2023-07-20T09:54:23.855Z,22.42
2023-07-20T09:56:53.815Z,22.30
2023-07-20T09:59:21.914Z,22.34
2023-07-20T10:01:50.580Z,22.48
2023-07-20T10:04:22.421Z,22.34
2023-07-20T10:06:55.980Z,22.20
2023-07-20T10:09:25.451Z,22.05
2023-07-20T10:12:10.934Z,21.79
2023-07-20T10:14:50.910Z,21.53
2023-07-20T10:17:19.444Z,21.48
2023-07-20T10:19:55.704Z,21.39
2023-07-20T10:22:28.757Z,21.31
2023-07-20T10:25:00.087Z,21.53
2023-07-20T10:27:29.033Z,21.85
2023-07-20T10:30:00.269Z,22.25
2023-07-20T10:32:29.754Z,22.63
2023-07-20T10:34:58.187Z,22.82
2023-07-20T10:37:49.461Z,23.04
2023-07-20T10:40:39.678Z,23.18
2023-07-20T10:43:09.967Z,23.44
2023-07-20T10:45:44.259Z,23.45
2023-07-20T10:48:17.542Z,23.65
2023-07-20T10:50:47.050Z,23.82
2023-07-20T10:53:16.765Z,23.93
2023-07-20T10:55:46.191Z,24.26
2023-07-20T10:58:15.988Z,24.55
2023-07-20T11:04:41.689Z,24.63
2023-07-20T11:07:10.269Z,24.40
2023-07-20T11:09:40.197Z,24.28
2023-07-20T11:12:14.763Z,24.19
2023-07-20T11:14:44.714Z,24.09
2023-07-20T11:17:14.679Z,23.94
2023-07-20T11:22:15.009Z,23.72
2023-07-20T11:24:43.805Z,23.58
2023-07-20T11:27:12.290Z,23.43
2023-07-20T11:29:40.394Z,23.52
2023-07-20T11:32:08.975Z,23.57
2023-07-20T11:34:37.344Z,23.54
2023-07-20T11:39:37.728Z,23.38
2023-07-20T11:42:06.825Z,23.19
2023-07-20T11:44:34.945Z,23.06
2023-07-20T11:47:11.452Z,22.91
2023-07-20T11:49:41.491Z,22.84
2023-07-20T11:52:16.790Z,22.93
2023-07-20T11:54:49.338Z,23.02
2023-07-20T11:57:18.862Z,23.01
2023-07-20T12:00:05.397Z,22.86
2023-07-20T12:02:35.049Z,22.74
2023-07-20T12:05:04.143Z,22.47
2023-07-20T12:07:37.702Z,22.08
2023-07-20T12:10:10.970Z,21.92
2023-07-20T12:12:42.012Z,21.92
2023-07-20T12:15:30.677Z,22.12
2023-07-20T12:18:03.589Z,22.59
2023-07-20T12:20:39.350Z,23.04
2023-07-20T12:23:12.682Z,22.96
2023-07-20T12:25:45.634Z,22.94
2023-07-20T12:28:18.727Z,23.11
2023-07-20T12:30:48.030Z,23.08
2023-07-20T12:33:17.435Z,22.79
2023-07-20T12:35:45.936Z,22.45
2023-07-20T12:38:14.723Z,22.07
2023-07-20T12:40:43.519Z,22.14
2023-07-20T12:43:11.681Z,22.11
2023-07-20T12:45:39.810Z,22.32
2023-07-20T12:48:07.910Z,22.43
2023-07-20T12:50:36.011Z,22.48
2023-07-20T12:53:04.924Z,22.60
2023-07-20T12:55:33.129Z,22.86
2023-07-20T12:58:01.117Z,23.00
2023-07-20T13:00:29.217Z,22.93
2023-07-20T13:10:30.944Z,22.68
2023-07-20T13:12:59.072Z,22.61
2023-07-20T13:15:34.664Z,22.64
2023-07-20T13:18:02.861Z,23.02
2023-07-20T13:20:31.313Z,23.39
2023-07-20T13:22:59.480Z,23.51
2023-07-20T13:25:27.470Z,23.41
2023-07-20T13:27:55.639Z,23.45
2023-07-20T13:30:23.754Z,23.50
2023-07-20T13:32:51.970Z,23.42
2023-07-20T13:35:20.687Z,23.24
2023-07-20T13:37:48.681Z,23.01
2023-07-20T13:40:19.776Z,22.93
2023-07-20T13:42:48.010Z,22.99
2023-07-20T13:45:16.231Z,22.91
2023-07-20T13:47:46.902Z,22.75
2023-07-20T13:52:47.677Z,22.54
2023-07-20T13:55:16.079Z,22.56
2023-07-20T13:57:44.145Z,22.47
2023-07-20T14:00:12.774Z,22.37
2023-07-20T14:07:44.669Z,22.03
2023-07-20T14:12:47.429Z,21.83
2023-07-20T14:15:15.560Z,21.72
2023-07-20T14:17:43.878Z,21.60
2023-07-20T14:22:45.637Z,21.29
2023-07-20T14:25:13.682Z,21.17
2023-07-20T14:27:41.824Z,21.06
2023-07-20T14:30:10.278Z,20.92
2023-07-20T14:32:39.833Z,20.77
2023-07-20T14:35:10.717Z,20.75
2023-07-20T14:37:39.191Z,20.74
2023-07-20T14:40:09.357Z,20.65
2023-07-20T14:42:37.537Z,20.60
2023-07-20T14:45:06.857Z,20.71
2023-07-20T14:47:36.671Z,20.75
2023-07-20T14:50:06.089Z,20.72
2023-07-20T14:52:34.335Z,20.87
2023-07-20T14:55:02.372Z,21.21
2023-07-20T14:57:30.315Z,21.51
2023-07-20T14:59:58.440Z,21.78
2023-07-20T15:02:26.487Z,22.14
2023-07-20T15:04:54.674Z,22.27
2023-07-20T15:07:25.560Z,22.36
2023-07-20T15:09:54.081Z,22.65
2023-07-20T15:12:22.105Z,22.60
2023-07-20T15:15:12.807Z,22.41
2023-07-20T15:17:43.672Z,22.45
2023-07-20T15:20:13.905Z,22.43
2023-07-20T15:22:42.379Z,22.41
2023-07-20T15:25:14.358Z,22.37
2023-07-20T15:27:48.348Z,22.36
2023-07-20T15:35:22.008Z,22.07
2023-07-20T15:37:50.076Z,22.08
2023-07-20T15:40:19.639Z,22.02
2023-07-20T15:45:21.408Z,21.95
2023-07-20T15:47:49.796Z,22.06
2023-07-20T15:50:18.441Z,22.17
2023-07-20T15:52:50.837Z,22.18
2023-07-20T15:55:19.615Z,22.18
2023-07-20T15:57:47.778Z,22.12
2023-07-20T16:00:17.439Z,22.03
2023-07-20T16:02:47.091Z,21.86
2023-07-20T16:05:15.428Z,21.78
2023-07-20T16:07:46.395Z,21.72
2023-07-20T16:10:14.501Z,21.70
2023-07-20T16:12:43.178Z,21.69
2023-07-20T16:15:12.095Z,21.63
2023-07-20T16:17:40.118Z,21.52
2023-07-20T16:20:09.027Z,21.40
2023-07-20T16:22:37.278Z,21.27
2023-07-20T16:25:05.669Z,20.97
2023-07-20T16:27:33.916Z,20.59
2023-07-20T16:30:02.737Z,20.03
2023-07-20T16:32:30.775Z,19.58
2023-07-20T16:35:11.617Z,19.24
2023-07-20T16:37:40.070Z,18.81
2023-07-20T16:45:15.452Z,17.41
2023-07-20T16:47:43.725Z,17.12
2023-07-20T16:50:11.957Z,16.79
2023-07-20T16:52:40.075Z,16.57
2023-07-20T16:55:08.504Z,16.43
2023-07-20T16:57:36.679Z,16.37
2023-07-20T17:00:11.760Z,16.30
2023-07-20T17:02:39.979Z,16.27
2023-07-20T17:05:11.717Z,16.18
2023-07-20T17:07:42.979Z,16.16
2023-07-20T17:10:11.701Z,16.13
2023-07-20T17:12:41.010Z,16.16
2023-07-20T17:15:09.411Z,16.26
2023-07-20T17:17:38.067Z,16.36
2023-07-20T17:22:45.595Z,16.56
2023-07-20T17:30:16.471Z,16.72
2023-07-20T17:32:44.693Z,16.78
2023-07-20T17:35:14.312Z,16.79
2023-07-20T17:45:23.220Z,16.63
2023-07-20T17:47:51.585Z,16.59
2023-07-20T17:50:19.697Z,16.54
2023-07-20T17:52:47.854Z,16.45
2023-07-20T17:55:20.894Z,16.36
2023-07-20T17:57:50.170Z,16.27
2023-07-20T18:02:49.493Z,16.05
2023-07-20T18:05:18.199Z,15.93
2023-07-20T18:07:46.313Z,15.77
2023-07-20T18:10:15.475Z,15.64
2023-07-20T18:12:44.337Z,15.54
2023-07-20T18:15:12.520Z,15.46
2023-07-20T18:17:40.861Z,15.34
2023-07-20T18:20:10.643Z,15.20
2023-07-20T18:22:39.330Z,15.09
2023-07-20T18:25:08.408Z,15.02
2023-07-20T18:27:38.181Z,14.95
2023-07-20T18:30:07.425Z,14.89
2023-07-20T18:32:35.572Z,14.81
2023-07-20T18:35:04.128Z,14.70
2023-07-20T18:37:32.418Z,14.52
2023-07-20T18:40:00.402Z,14.39
2023-07-20T18:42:29.324Z,14.23
2023-07-20T18:44:57.827Z,14.09
2023-07-20T18:47:26.600Z,13.99
2023-07-20T18:49:57.694Z,13.90
2023-07-20T18:52:26.481Z,13.82
2023-07-20T18:54:54.545Z,13.76
2023-07-20T18:57:25.252Z,13.66
2023-07-20T18:59:53.933Z,13.57
2023-07-20T19:04:38.237Z,13.40
2023-07-20T19:07:07.445Z,13.29
2023-07-20T19:09:35.430Z,13.19
2023-07-20T19:12:04.279Z,13.06
2023-07-20T19:14:32.332Z,12.96
2023-07-20T19:17:01.439Z,12.86
2023-07-20T19:19:32.385Z,12.76
2023-07-20T19:22:00.474Z,12.65
2023-07-20T19:24:29.072Z,12.54
2023-07-20T19:26:57.175Z,12.45
2023-07-20T19:29:25.918Z,12.36
2023-07-20T19:31:53.997Z,12.28
2023-07-20T19:34:21.965Z,12.24
2023-07-20T19:36:50.425Z,12.18
2023-07-20T19:39:19.731Z,12.16
2023-07-20T19:41:47.659Z,12.11
2023-07-20T19:44:15.898Z,12.06
2023-07-20T19:46:46.705Z,11.98
2023-07-20T19:49:15.242Z,11.90
2023-07-20T19:51:43.241Z,11.87
2023-07-20T19:56:42.584Z,11.80
2023-07-20T19:59:13.526Z,11.78
2023-07-20T20:01:44.664Z,11.72
2023-07-20T20:06:44.816Z,11.57
2023-07-20T20:09:13.414Z,11.54
2023-07-20T20:11:42.649Z,11.52
2023-07-20T20:14:11.542Z,11.51
2023-07-20T20:16:39.957Z,11.48
2023-07-20T20:19:11.281Z,11.45
2023-07-20T20:21:39.542Z,11.44
2023-07-20T20:24:07.965Z,11.43
2023-07-20T20:26:40.002Z,11.42
2023-07-20T20:29:08.101Z,11.40
2023-07-20T20:31:36.202Z,11.36
2023-07-20T20:34:04.214Z,11.27
2023-07-20T20:36:32.159Z,11.21
2023-07-20T20:39:00.141Z,11.14
2023-07-20T20:41:30.881Z,11.12
2023-07-20T20:43:59.060Z,11.11
2023-07-20T20:46:27.454Z,11.13
2023-07-20T20:48:55.989Z,11.14
2023-07-20T20:51:24.019Z,11.13
2023-07-20T20:53:51.985Z,11.11
2023-07-20T20:56:21.052Z,11.05
2023-07-20T20:58:50.041Z,10.99
2023-07-20T21:01:18.133Z,10.96
2023-07-20T21:03:46.179Z,10.90
2023-07-20T21:06:14.238Z,10.87
2023-07-20T21:08:42.234Z,10.85
2023-07-20T21:11:10.798Z,10.82
2023-07-20T21:13:39.753Z,10.84
2023-07-20T21:16:07.836Z,10.82
2023-07-20T21:18:35.992Z,10.86
2023-07-20T21:21:05.352Z,10.93
2023-07-20T21:23:33.405Z,10.96
2023-07-20T21:26:01.554Z,10.97
2023-07-20T21:28:30.254Z,10.98
2023-07-20T21:31:05.556Z,11.01
2023-07-20T21:33:34.186Z,11.04
2023-07-20T21:36:02.332Z,11.05
2023-07-20T21:38:31.732Z,11.03
2023-07-20T21:41:00.653Z,10.98
2023-07-20T21:43:28.807Z,10.96
2023-07-20T21:45:57.522Z,10.94
2023-07-20T21:48:25.490Z,10.94
2023-07-20T21:50:54.607Z,10.94
2023-07-20T21:53:22.952Z,10.98
2023-07-20T21:55:50.930Z,11.02
2023-07-20T21:58:19.200Z,11.09
2023-07-20T22:00:51.946Z,11.14
2023-07-20T22:03:22.305Z,11.20
2023-07-20T22:05:53.410Z,11.24
2023-07-20T22:08:21.871Z,11.33
2023-07-20T22:10:53.431Z,11.40
2023-07-20T22:13:22.334Z,11.48
2023-07-20T22:15:51.778Z,11.57
2023-07-20T22:20:51.841Z,11.69
2023-07-20T22:23:19.846Z,11.73
2023-07-20T22:25:48.056Z,11.77
2023-07-20T22:28:16.406Z,11.81
2023-07-20T22:30:45.997Z,11.82
2023-07-20T22:33:14.109Z,11.83
2023-07-20T22:35:42.529Z,11.83
2023-07-20T22:38:10.825Z,11.83
2023-07-20T22:40:39.268Z,11.84
2023-07-20T22:43:07.753Z,11.84
2023-07-20T22:45:35.842Z,11.85
2023-07-20T22:48:04.423Z,11.85
2023-07-20T22:50:33.213Z,11.85
2023-07-20T22:53:01.578Z,11.86
2023-07-20T22:55:29.688Z,11.85
2023-07-20T22:57:59.021Z,11.84
2023-07-20T23:00:29.771Z,11.84
2023-07-20T23:02:59.239Z,11.83
2023-07-20T23:05:28.127Z,11.82
2023-07-20T23:07:56.199Z,11.80
2023-07-20T23:10:24.260Z,11.77
2023-07-20T23:12:52.250Z,11.75
2023-07-20T23:15:20.349Z,11.72
2023-07-20T23:17:49.534Z,11.70
2023-07-20T23:20:20.702Z,11.68
2023-07-20T23:22:50.241Z,11.64
2023-07-20T23:25:20.002Z,11.61
2023-07-20T23:27:49.157Z,11.56
2023-07-20T23:30:17.840Z,11.53
2023-07-20T23:32:46.964Z,11.48
2023-07-20T23:35:16.346Z,11.42
2023-07-20T23:37:44.606Z,11.36
2023-07-20T23:40:15.520Z,11.28
2023-07-20T23:42:46.036Z,11.21
2023-07-20T23:45:15.533Z,11.17
2023-07-20T23:47:44.177Z,11.13
2023-07-20T23:50:14.145Z,11.06
2023-07-20T23:52:42.872Z,11.01
2023-07-20T23:55:15.219Z,10.97
2023-07-20T23:57:46.837Z,10.94
